createdAt,value
2023-05-10T00:01:09.484Z,67.05
2023-05-10T00:03:36.022Z,66.98
2023-05-10T00:06:02.555Z,66.94
2023-05-10T00:08:29.000Z,67.13
2023-05-10T00:10:55.428Z,67.38
2023-05-10T00:13:22.727Z,67.83
2023-05-10T00:15:49.207Z,67.52
2023-05-10T00:18:15.919Z,67.80
2023-05-10T00:20:42.394Z,67.98
2023-05-10T00:23:08.804Z,68.38
2023-05-10T00:25:35.231Z,68.33
2023-05-10T00:28:02.737Z,68.13
2023-05-10T00:30:29.201Z,68.25
2023-05-10T00:32:55.877Z,68.09
2023-05-10T00:35:22.673Z,67.98
2023-05-10T00:37:49.094Z,67.79
2023-05-10T00:40:15.698Z,68.08
2023-05-10T00:42:42.397Z,68.01
2023-05-10T00:45:09.116Z,67.92
2023-05-10T00:47:35.630Z,67.73
2023-05-10T00:50:02.417Z,67.58
2023-05-10T00:52:29.819Z,67.73
2023-05-10T00:54:56.366Z,67.79
2023-05-10T00:57:22.833Z,68.34
2023-05-10T00:59:49.315Z,68.29
2023-05-10T01:02:16.169Z,68.14
2023-05-10T01:04:42.755Z,68.12
2023-05-10T01:07:09.301Z,68.30
2023-05-10T01:09:35.797Z,68.21
2023-05-10T01:12:02.737Z,67.95
2023-05-10T01:14:29.227Z,68.35
2023-05-10T01:16:55.713Z,67.69
2023-05-10T01:19:27.088Z,68.67
2023-05-10T01:22:47.020Z,68.20
2023-05-10T01:26:15.315Z,68.28
2023-05-10T01:32:13.453Z,68.26
2023-05-10T01:34:54.049Z,68.50
2023-05-10T01:37:43.419Z,68.77
2023-05-10T01:40:20.746Z,68.95
2023-05-10T01:43:13.444Z,68.86
2023-05-10T01:46:11.388Z,67.92
2023-05-10T01:48:40.142Z,67.74
2023-05-10T01:51:07.164Z,67.90
2023-05-10T01:53:33.619Z,68.53
2023-05-10T01:56:00.110Z,69.07
2023-05-10T01:58:29.672Z,68.90
2023-05-10T02:00:56.664Z,69.06
2023-05-10T02:03:24.391Z,68.67
2023-05-10T02:05:50.926Z,68.42
2023-05-10T02:08:17.470Z,68.44
2023-05-10T02:10:43.979Z,68.00
2023-05-10T02:13:10.587Z,67.83
2023-05-10T02:15:37.041Z,68.44
2023-05-10T02:18:03.630Z,69.28
2023-05-10T02:20:30.204Z,68.33
2023-05-10T02:22:57.094Z,68.27
2023-05-10T02:25:24.308Z,68.33
2023-05-10T02:27:50.747Z,68.63
2023-05-10T02:30:17.883Z,68.68
2023-05-10T02:32:44.561Z,68.02
2023-05-10T02:35:11.032Z,67.85
2023-05-10T02:37:38.334Z,68.27
2023-05-10T02:40:05.679Z,68.16
2023-05-10T02:42:33.672Z,68.36
2023-05-10T02:54:46.836Z,68.32
2023-05-10T02:57:20.249Z,68.18
2023-05-10T03:02:31.811Z,68.14
2023-05-10T03:04:58.580Z,68.28
2023-05-10T03:22:07.706Z,68.33
2023-05-10T03:27:34.313Z,69.35
2023-05-10T03:36:44.559Z,67.92
2023-05-10T03:39:11.524Z,67.85
2023-05-10T03:41:38.006Z,68.40
2023-05-10T03:44:04.648Z,68.56
2023-05-10T03:46:31.203Z,69.38
2023-05-10T03:51:50.792Z,68.65
2023-05-10T03:54:17.274Z,68.32
2023-05-10T03:56:43.761Z,67.45
2023-05-10T03:59:10.244Z,67.97
2023-05-10T04:01:36.781Z,69.06
2023-05-10T04:04:03.356Z,68.92
2023-05-10T04:06:30.020Z,68.72
2023-05-10T04:12:18.890Z,68.97
2023-05-10T04:14:45.333Z,69.23
2023-05-10T04:17:11.934Z,68.34
2023-05-10T04:19:38.525Z,68.55
2023-05-10T04:22:04.963Z,68.63
2023-05-10T04:24:31.459Z,68.78
2023-05-10T04:27:26.942Z,68.75
2023-05-10T04:29:53.415Z,68.73
2023-05-10T04:32:21.253Z,68.53
2023-05-10T04:34:48.093Z,68.95
2023-05-10T04:37:14.596Z,68.69
2023-05-10T04:39:42.524Z,68.23
2023-05-10T04:42:09.164Z,68.25
2023-05-10T04:44:35.684Z,67.88
2023-05-10T04:56:23.911Z,68.67
2023-05-10T04:58:50.545Z,68.54
2023-05-10T05:01:17.066Z,68.24
2023-05-10T05:03:43.714Z,68.25
2023-05-10T05:06:10.312Z,68.16
2023-05-10T05:11:46.432Z,68.45
2023-05-10T05:14:12.875Z,68.63
2023-05-10T05:16:39.437Z,69.02
2023-05-10T05:19:06.103Z,68.60
2023-05-10T05:22:03.101Z,68.35
2023-05-10T05:24:29.552Z,68.05
2023-05-10T05:26:56.012Z,67.50
2023-05-10T05:29:22.467Z,67.70
2023-05-10T05:31:48.975Z,67.70
2023-05-10T05:34:15.415Z,67.96
2023-05-10T05:36:41.913Z,68.20
2023-05-10T05:40:05.910Z,68.56
2023-05-10T05:46:57.590Z,68.37
2023-05-10T05:49:24.073Z,68.65
2023-05-10T05:51:51.239Z,68.82
2023-05-10T05:55:19.170Z,68.77
2023-05-10T05:57:46.518Z,67.96
2023-05-10T06:00:13.622Z,68.33
2023-05-10T06:02:40.243Z,67.71
2023-05-10T06:05:07.389Z,66.53
2023-05-10T06:07:33.892Z,64.06
2023-05-10T06:13:22.475Z,65.15
2023-05-10T06:15:59.946Z,63.13
2023-05-10T06:18:26.603Z,63.23
2023-05-10T06:20:53.205Z,63.46
2023-05-10T06:30:12.220Z,63.47
2023-05-10T06:32:49.727Z,63.10
2023-05-10T06:35:16.465Z,63.29
2023-05-10T06:37:43.106Z,64.22
2023-05-10T06:40:10.294Z,62.99
2023-05-10T06:42:36.909Z,63.18
2023-05-10T06:45:03.555Z,61.50
2023-05-10T06:47:30.036Z,64.32
2023-05-10T06:49:57.364Z,64.50
2023-05-10T06:52:24.373Z,64.11
2023-05-10T06:57:45.649Z,65.92
2023-05-10T07:00:12.639Z,65.16
2023-05-10T07:02:39.136Z,65.75
2023-05-10T07:05:06.030Z,65.34
2023-05-10T07:07:32.577Z,65.92
2023-05-10T07:09:59.078Z,65.94
2023-05-10T07:12:25.782Z,65.24
2023-05-10T07:14:52.361Z,64.94
2023-05-10T07:17:19.003Z,65.27
2023-05-10T07:19:45.574Z,65.95
2023-05-10T07:22:12.489Z,64.89
2023-05-10T07:24:38.961Z,65.80
2023-05-10T07:27:05.478Z,65.38
2023-05-10T07:29:31.954Z,66.26
2023-05-10T07:31:59.075Z,65.17
2023-05-10T07:34:25.998Z,65.82
2023-05-10T07:36:52.929Z,65.42
2023-05-10T07:39:26.747Z,65.21
2023-05-10T07:41:56.912Z,65.90
2023-05-10T07:44:23.587Z,65.56
2023-05-10T07:46:50.068Z,66.24
2023-05-10T07:49:16.802Z,66.33
2023-05-10T07:51:43.633Z,64.93
2023-05-10T07:54:12.907Z,66.02
2023-05-10T07:56:40.612Z,66.51
2023-05-10T07:59:08.347Z,65.33
2023-05-10T08:01:35.934Z,65.73
2023-05-10T08:04:02.877Z,65.88
2023-05-10T08:06:30.721Z,66.02
2023-05-10T08:08:57.259Z,65.38
2023-05-10T08:11:23.752Z,65.13
2023-05-10T08:13:50.747Z,66.19
2023-05-10T08:16:17.823Z,65.35
2023-05-10T08:18:44.747Z,65.42
2023-05-10T08:21:12.271Z,63.38
2023-05-10T08:23:38.778Z,62.09
2023-05-10T08:26:05.220Z,59.60
2023-05-10T08:28:31.654Z,63.35
2023-05-10T08:30:58.108Z,63.72
2023-05-10T08:33:24.645Z,62.44
2023-05-10T08:35:51.210Z,62.12
2023-05-10T08:38:18.501Z,62.85
2023-05-10T08:40:45.351Z,62.83
2023-05-10T08:43:12.856Z,59.88
2023-05-10T08:45:43.752Z,60.48
2023-05-10T08:48:11.088Z,61.27
2023-05-10T08:50:41.012Z,60.37
2023-05-10T08:53:11.191Z,53.62
2023-05-10T08:55:39.375Z,58.53
2023-05-10T08:58:06.485Z,54.45
2023-05-10T09:00:33.125Z,55.69
2023-05-10T09:02:59.999Z,53.73
2023-05-10T09:05:26.548Z,54.55
2023-05-10T09:07:53.024Z,55.49
2023-05-10T09:10:20.063Z,53.21
2023-05-10T09:12:46.488Z,56.31
2023-05-10T09:15:13.260Z,52.85
2023-05-10T09:17:39.920Z,52.28
2023-05-10T09:20:07.270Z,54.40
2023-05-10T09:22:34.642Z,52.38
2023-05-10T09:25:13.774Z,54.62
2023-05-10T09:27:41.245Z,55.84
2023-05-10T09:30:08.435Z,55.39
2023-05-10T09:32:39.475Z,56.65
2023-05-10T09:35:12.230Z,56.46
2023-05-10T09:37:45.605Z,53.97
2023-05-10T09:40:13.531Z,52.44
2023-05-10T09:42:40.108Z,51.88
2023-05-10T09:45:07.007Z,52.13
2023-05-10T09:47:34.857Z,54.21
2023-05-10T09:50:04.483Z,53.46
2023-05-10T09:52:47.684Z,54.55
2023-05-10T09:55:14.335Z,54.10
2023-05-10T09:57:41.523Z,54.30
2023-05-10T10:00:08.638Z,52.01
2023-05-10T10:02:35.160Z,53.22
2023-05-10T10:05:02.068Z,51.70
2023-05-10T10:07:28.586Z,50.54
2023-05-10T10:09:55.014Z,50.83
2023-05-10T10:12:21.404Z,51.37
2023-05-10T10:14:48.965Z,51.02
2023-05-10T10:17:15.365Z,51.22
2023-05-10T10:19:41.794Z,50.61
2023-05-10T10:22:08.205Z,50.52
2023-05-10T10:24:34.736Z,51.99
2023-05-10T10:27:24.917Z,51.13
2023-05-10T10:30:12.947Z,50.33
2023-05-10T10:33:07.974Z,50.40
2023-05-10T10:35:43.926Z,51.12
2023-05-10T10:38:10.389Z,51.66
2023-05-10T10:40:36.833Z,54.33
2023-05-10T10:43:23.052Z,53.81
2023-05-10T10:46:10.227Z,51.80
2023-05-10T10:48:36.837Z,53.13
2023-05-10T10:51:03.354Z,53.62
2023-05-10T10:53:29.958Z,54.84
2023-05-10T10:56:07.814Z,48.30
2023-05-10T10:58:34.661Z,49.71
2023-05-10T11:01:17.781Z,49.44
2023-05-10T11:04:10.814Z,50.28
2023-05-10T11:06:37.343Z,50.23
2023-05-10T11:09:10.926Z,50.18
2023-05-10T11:11:37.436Z,49.70
2023-05-10T11:14:07.906Z,48.38
2023-05-10T11:16:44.209Z,49.06
2023-05-10T11:19:14.860Z,46.93
2023-05-10T11:22:06.369Z,48.34
2023-05-10T11:24:34.360Z,48.80
2023-05-10T11:27:00.788Z,47.75
2023-05-10T11:29:27.522Z,48.43
2023-05-10T11:31:53.981Z,49.94
2023-05-10T11:34:38.518Z,49.26
2023-05-10T11:37:04.941Z,47.67
2023-05-10T11:39:32.068Z,49.23
2023-05-10T11:41:58.685Z,49.69
2023-05-10T11:44:30.420Z,47.76
2023-05-10T11:46:59.794Z,48.24
2023-05-10T11:49:26.189Z,47.50
2023-05-10T11:51:52.592Z,48.41
2023-05-10T11:54:19.026Z,48.39
2023-05-10T11:56:46.376Z,49.11
2023-05-10T11:59:15.133Z,48.38
2023-05-10T12:01:42.407Z,48.60
2023-05-10T12:04:09.247Z,47.49
2023-05-10T12:06:39.615Z,49.57
2023-05-10T12:09:09.474Z,48.24
2023-05-10T12:11:39.662Z,49.06
2023-05-10T12:14:07.699Z,49.74
2023-05-10T12:16:34.544Z,50.30
2023-05-10T12:19:01.612Z,46.39
2023-05-10T12:21:29.213Z,46.17
2023-05-10T12:24:01.206Z,47.69
2023-05-10T12:26:28.595Z,46.29
2023-05-10T12:28:55.727Z,45.79
2023-05-10T12:31:22.186Z,44.91
2023-05-10T12:33:50.162Z,46.24
2023-05-10T12:36:16.893Z,45.69
2023-05-10T12:38:44.449Z,43.42
2023-05-10T12:41:11.951Z,45.72
2023-05-10T12:43:38.721Z,44.08
2023-05-10T12:46:09.139Z,42.30
2023-05-10T12:48:36.395Z,44.08
2023-05-10T12:51:03.438Z,42.67
2023-05-10T12:53:29.969Z,44.23
2023-05-10T12:55:56.604Z,44.88
2023-05-10T12:58:34.922Z,44.14
2023-05-10T13:01:02.296Z,41.85
2023-05-10T13:03:28.753Z,44.19
2023-05-10T13:05:55.359Z,44.92
2023-05-10T13:08:21.802Z,44.32
2023-05-10T13:10:48.256Z,43.29
2023-05-10T13:13:16.184Z,46.48
2023-05-10T13:15:42.608Z,45.59
2023-05-10T13:18:09.262Z,45.77
2023-05-10T13:20:36.814Z,45.31
2023-05-10T13:23:03.671Z,43.74
2023-05-10T13:25:30.278Z,46.50
2023-05-10T13:27:56.707Z,46.94
2023-05-10T13:30:24.761Z,46.57
2023-05-10T13:32:51.445Z,48.10
2023-05-10T13:35:17.950Z,44.39
2023-05-10T13:37:44.406Z,45.85
2023-05-10T13:40:11.037Z,45.58
2023-05-10T13:42:37.460Z,43.96
2023-05-10T13:45:04.141Z,44.02
2023-05-10T13:47:30.573Z,44.60
2023-05-10T13:49:58.281Z,44.12
2023-05-10T13:52:24.683Z,47.23
2023-05-10T13:54:52.957Z,45.31
2023-05-10T13:57:19.627Z,45.05
2023-05-10T13:59:46.090Z,45.56
2023-05-10T14:02:13.875Z,46.04
2023-05-10T14:04:40.336Z,46.73
2023-05-10T14:07:06.774Z,49.58
2023-05-10T14:09:33.235Z,47.63
2023-05-10T14:11:59.661Z,48.23
2023-05-10T14:14:26.157Z,46.83
2023-05-10T14:16:52.698Z,46.56
2023-05-10T14:19:19.380Z,47.29
2023-05-10T14:21:45.932Z,47.08
2023-05-10T14:24:12.843Z,46.08
2023-05-10T14:26:39.285Z,44.72
2023-05-10T14:29:05.697Z,45.05
2023-05-10T14:31:32.540Z,45.08
2023-05-10T14:34:00.019Z,46.05
2023-05-10T14:36:26.588Z,46.18
2023-05-10T14:38:53.138Z,44.50
2023-05-10T14:41:19.582Z,42.61
2023-05-10T14:43:46.095Z,42.30
2023-05-10T14:46:12.559Z,42.66
2023-05-10T14:48:39.141Z,44.09
2023-05-10T14:51:05.571Z,43.32
2023-05-10T14:53:32.078Z,43.45
2023-05-10T14:55:58.751Z,45.33
2023-05-10T14:58:25.193Z,43.23
2023-05-10T15:00:51.946Z,44.14
2023-05-10T15:03:18.853Z,42.99
2023-05-10T15:05:45.802Z,43.41
2023-05-10T15:08:13.460Z,45.14
2023-05-10T15:10:40.461Z,45.43
2023-05-10T15:13:06.935Z,46.87
2023-05-10T15:15:33.527Z,47.52
2023-05-10T15:18:00.089Z,46.54
2023-05-10T15:20:26.733Z,45.66
2023-05-10T15:22:53.213Z,44.79
2023-05-10T15:25:19.727Z,45.01
2023-05-10T15:27:46.323Z,46.53
2023-05-10T15:30:13.277Z,47.28
2023-05-10T15:32:40.939Z,45.39
2023-05-10T15:35:09.105Z,45.60
2023-05-10T15:37:35.531Z,44.69
2023-05-10T15:40:04.759Z,45.44
2023-05-10T15:42:32.849Z,45.71
2023-05-10T15:44:59.402Z,44.91
2023-05-10T15:47:26.619Z,45.68
2023-05-10T15:49:53.137Z,44.18
2023-05-10T15:52:20.906Z,44.18
2023-05-10T15:54:47.468Z,44.92
2023-05-10T15:57:14.075Z,45.10
2023-05-10T15:59:40.522Z,46.54
2023-05-10T16:02:07.686Z,46.34
2023-05-10T16:04:34.193Z,45.64
2023-05-10T16:07:00.819Z,44.20
2023-05-10T16:09:27.716Z,43.25
2023-05-10T16:11:54.376Z,44.03
2023-05-10T16:25:19.021Z,43.12
2023-05-10T16:27:45.704Z,44.08
2023-05-10T16:30:12.559Z,43.62
2023-05-10T16:32:39.114Z,45.46
2023-05-10T16:35:06.012Z,44.82
2023-05-10T16:37:32.538Z,43.79
2023-05-10T16:39:58.950Z,44.53
2023-05-10T16:42:25.989Z,44.55
2023-05-10T16:44:52.446Z,44.70
2023-05-10T16:47:18.861Z,44.21
2023-05-10T16:49:45.559Z,45.48
2023-05-10T16:52:11.977Z,46.69
2023-05-10T16:54:38.412Z,47.50
2023-05-10T16:57:04.851Z,46.69
2023-05-10T16:59:31.270Z,46.90
2023-05-10T17:01:57.784Z,47.27
2023-05-10T17:04:24.651Z,47.91
2023-05-10T17:06:51.618Z,47.52
2023-05-10T17:09:20.069Z,47.89
2023-05-10T17:11:46.600Z,47.05
2023-05-10T17:14:13.336Z,48.02
2023-05-10T17:16:39.873Z,48.15
2023-05-10T17:19:06.544Z,48.69
2023-05-10T17:21:33.027Z,47.48
2023-05-10T17:23:59.452Z,46.43
2023-05-10T17:26:27.407Z,46.36
2023-05-10T17:28:54.602Z,45.95
2023-05-10T17:31:21.073Z,45.74
2023-05-10T17:33:47.528Z,46.78
2023-05-10T17:36:13.939Z,45.98
2023-05-10T17:38:40.358Z,46.15
2023-05-10T17:41:07.349Z,45.05
2023-05-10T17:43:33.748Z,45.30
2023-05-10T17:46:00.346Z,44.14
2023-05-10T17:48:26.918Z,45.17
2023-05-10T17:50:53.372Z,45.19
2023-05-10T17:53:19.812Z,45.13
2023-05-10T17:55:46.896Z,45.10
2023-05-10T17:58:13.342Z,44.72
2023-05-10T18:00:39.939Z,45.30
2023-05-10T18:03:06.413Z,45.44
2023-05-10T18:05:37.151Z,46.08
2023-05-10T18:08:04.209Z,45.80
2023-05-10T18:10:30.743Z,45.56
2023-05-10T18:12:58.408Z,45.30
2023-05-10T18:15:25.103Z,46.62
2023-05-10T18:17:51.969Z,47.31
2023-05-10T18:20:18.713Z,47.28
2023-05-10T18:22:45.243Z,47.45
2023-05-10T18:25:11.669Z,47.35
2023-05-10T18:27:38.236Z,47.41
2023-05-10T18:30:06.180Z,49.15
2023-05-10T18:32:32.672Z,48.42
2023-05-10T18:34:59.076Z,48.13
2023-05-10T18:37:25.480Z,48.64
2023-05-10T18:39:51.910Z,48.23
2023-05-10T18:42:18.327Z,47.71
2023-05-10T18:44:44.790Z,48.50
2023-05-10T18:47:11.198Z,47.95
2023-05-10T18:49:37.630Z,48.14
2023-05-10T18:52:04.056Z,48.35
2023-05-10T18:54:30.466Z,48.77
2023-05-10T18:56:58.478Z,49.97
2023-05-10T18:59:30.877Z,48.61
2023-05-10T19:01:57.753Z,47.83
2023-05-10T19:04:24.425Z,47.84
2023-05-10T19:06:50.849Z,48.43
2023-05-10T19:09:19.983Z,48.66
2023-05-10T19:11:46.408Z,48.93
2023-05-10T19:14:12.877Z,49.75
2023-05-10T19:16:40.187Z,49.66
2023-05-10T19:19:08.634Z,49.79
2023-05-10T19:21:35.318Z,50.37
2023-05-10T19:24:01.935Z,50.15
2023-05-10T19:26:28.393Z,50.57
2023-05-10T19:28:54.824Z,51.47
2023-05-10T19:31:21.514Z,51.67
2023-05-10T19:33:48.043Z,51.46
2023-05-10T19:36:14.455Z,51.53
2023-05-10T19:38:40.986Z,51.01
2023-05-10T19:41:07.395Z,50.79
2023-05-10T19:43:34.942Z,52.03
2023-05-10T19:46:01.782Z,51.17
2023-05-10T19:48:28.287Z,50.89
2023-05-10T19:50:55.261Z,51.16
2023-05-10T19:53:21.717Z,51.49
2023-05-10T19:55:48.373Z,50.96
2023-05-10T19:58:14.815Z,51.19
2023-05-10T20:00:41.403Z,51.90
2023-05-10T20:03:09.293Z,51.40
2023-05-10T20:05:35.895Z,53.04
2023-05-10T20:08:02.436Z,51.96
2023-05-10T20:10:28.852Z,52.55
2023-05-10T20:12:55.274Z,52.16
2023-05-10T20:15:22.905Z,51.72
2023-05-10T20:17:51.028Z,51.66
2023-05-10T20:20:17.806Z,52.29
2023-05-10T20:22:44.736Z,51.61
2023-05-10T20:25:11.305Z,50.49
2023-05-10T20:27:37.744Z,51.56
2023-05-10T20:30:04.828Z,52.33
2023-05-10T20:32:31.526Z,51.99
2023-05-10T20:34:58.025Z,53.17
2023-05-10T20:37:24.454Z,53.51
2023-05-10T20:39:50.870Z,53.65
2023-05-10T20:42:17.322Z,52.76
2023-05-10T20:44:44.207Z,54.00
2023-05-10T20:47:10.634Z,53.56
2023-05-10T20:49:37.925Z,53.95
2023-05-10T20:52:04.981Z,54.49
2023-05-10T20:54:31.399Z,54.62
2023-05-10T20:56:57.887Z,54.96
2023-05-10T20:59:24.283Z,54.13
2023-05-10T21:01:50.918Z,54.12
2023-05-10T21:04:17.368Z,53.60
2023-05-10T21:06:44.141Z,53.61
2023-05-10T21:09:10.689Z,54.32
2023-05-10T21:11:38.322Z,54.98
2023-05-10T21:14:05.229Z,55.56
2023-05-10T21:16:31.855Z,56.01
2023-05-10T21:18:58.331Z,56.54
2023-05-10T21:21:24.810Z,55.88
2023-05-10T21:23:51.224Z,56.09
2023-05-10T21:26:17.644Z,56.14
2023-05-10T21:28:44.497Z,56.68
2023-05-10T21:31:11.222Z,56.66
2023-05-10T21:33:37.704Z,57.36
2023-05-10T21:36:04.397Z,58.14
2023-05-10T21:38:31.314Z,57.90
2023-05-10T21:40:57.770Z,57.98
2023-05-10T21:43:24.177Z,57.76
2023-05-10T21:45:50.633Z,58.34
2023-05-10T21:48:17.255Z,58.24
2023-05-10T21:50:43.794Z,58.36
2023-05-10T21:53:10.224Z,58.06
2023-05-10T21:55:36.863Z,58.06
2023-05-10T21:58:03.308Z,58.02
2023-05-10T22:00:30.571Z,58.09
2023-05-10T22:02:57.728Z,57.47
2023-05-10T22:05:24.220Z,58.31
2023-05-10T22:07:50.715Z,57.81
2023-05-10T22:10:17.382Z,57.77
2023-05-10T22:12:43.948Z,57.87
2023-05-10T22:15:11.169Z,58.46
2023-05-10T22:17:39.263Z,58.24
2023-05-10T22:20:09.259Z,58.44
2023-05-10T22:22:36.620Z,58.07
2023-05-10T22:25:03.759Z,58.08
2023-05-10T22:27:30.180Z,58.19
2023-05-10T22:29:56.728Z,58.31
2023-05-10T22:32:23.172Z,58.34
2023-05-10T22:34:49.643Z,58.95
2023-05-10T22:37:17.892Z,58.43
2023-05-10T22:39:48.490Z,58.68
2023-05-10T22:42:14.904Z,58.63
2023-05-10T22:44:41.597Z,57.90
2023-05-10T22:47:08.888Z,58.34
2023-05-10T22:49:35.316Z,58.48
2023-05-10T22:52:01.736Z,58.57
2023-05-10T22:54:28.169Z,58.97
2023-05-10T22:56:54.589Z,58.79
2023-05-10T22:59:21.096Z,58.68
2023-05-10T23:01:48.855Z,59.33
2023-05-10T23:04:16.906Z,58.35
2023-05-10T23:06:43.362Z,58.86
2023-05-10T23:09:09.809Z,58.48
2023-05-10T23:11:36.482Z,58.34
2023-05-10T23:14:03.061Z,58.75
2023-05-10T23:16:29.558Z,58.97
2023-05-10T23:18:56.096Z,58.98
2023-05-10T23:21:22.666Z,58.87
2023-05-10T23:23:49.237Z,58.90
2023-05-10T23:26:15.632Z,59.22
2023-05-10T23:28:42.065Z,59.17
2023-05-10T23:31:08.571Z,59.01
2023-05-10T23:33:35.081Z,58.45
2023-05-10T23:36:01.541Z,58.81
2023-05-10T23:38:27.959Z,59.06
2023-05-10T23:40:54.908Z,58.63
2023-05-10T23:43:21.791Z,58.54
2023-05-10T23:45:57.680Z,59.02
2023-05-10T23:48:24.226Z,59.32
2023-05-10T23:50:50.630Z,59.18
2023-05-10T23:53:17.038Z,58.94
2023-05-10T23:55:43.578Z,58.64
2023-05-10T23:58:10.027Z,58.97
